Latest Weather Observations for Cleve Airport

IDS60801

Issued at 3:01 pm CST Thursday 28 May 2015 (issued every 30 minutes, with the page automatically refreshed every 10 minutes)

About weather observations | Map of weather stations | Latest weather observations for SA | Other Formats
Station Details ID: 018116 Name: CLEVE AERODROME Lat: -33.71 Lon: 136.50 Height: 175.0 m
Data from the previous 72 hours. | See also: Recent months at Cleve Airport
Date/Time
CST
Temp
°C
App
Temp
°C
Dew
Point
Rel
Hum
%
Delta-T
°C
Wind Press
QNH
hPa
Press
MSL
hPa
Rain
since 9 am
mm
Dir
 
Spd
km/h
Gust
km/h
Spd
kts
Gust
kts
28/03:00pm 17.7 11.9 8.0 53 5.0 W 28 43 15 23 1018.7 1018.5 0.0
28/02:30pm 17.9 13.0 8.5 54 4.9 WNW 24 35 13 19 1018.7 - 0.0
28/02:00pm 17.5 11.9 8.9 57 4.5 W 28 39 15 21 1018.8 - 0.0
28/01:30pm 17.0 12.8 9.9 63 3.8 WNW 22 33 12 18 1018.9 - 0.0
28/01:00pm 16.7 11.8 10.1 65 3.5 W 26 37 14 20 1019.1 - 0.0
28/12:30pm 17.2 12.5 10.6 65 3.6 W 26 39 14 21 1019.3 - 0.0
28/12:00pm 17.3 12.6 10.7 65 3.6 W 26 35 14 19 1019.7 1019.6 0.0
28/11:30am 16.8 12.9 10.9 68 3.2 WNW 22 32 12 17 1019.9 - 0.0
28/11:00am 16.0 12.0 10.3 69 3.0 WNW 22 33 12 18 1020.2 - 0.0
28/10:30am 15.9 12.3 10.4 70 2.9 NW 20 28 11 15 1020.5 - 0.0
28/10:00am 15.5 11.8 10.3 71 2.8 NW 20 28 11 15 1020.5 - 0.0
28/09:30am 15.1 12.0 10.3 73 2.5 NW 17 24 9 13 1020.5 - 0.0
28/09:00am 13.7 10.9 11.2 85 1.3 NNW 17 24 9 13 1020.3 1020.2 0.0
28/08:30am 12.6 10.1 11.0 90 0.8 NNW 15 20 8 11 1020.1 - 0.0
28/08:00am 11.9 9.4 11.0 94 0.5 NNW 15 19 8 10 1019.8 - 0.0
28/07:30am 11.9 9.5 11.3 96 0.3 NNW 15 20 8 11 1019.6 - 0.0
28/07:00am 12.1 9.7 11.5 96 0.3 NNW 15 19 8 10 1019.3 - 0.0
28/06:30am 12.6 10.3 11.8 95 0.4 NNW 15 20 8 11 1019.0 - 0.0
28/06:00am 13.1 11.0 12.3 95 0.4 NW 15 22 8 12 1018.8 1018.7 0.0
28/05:30am 13.2 11.4 12.1 93 0.6 NW 13 19 7 10 1018.8 - 0.0
28/05:00am 13.0 11.0 11.6 91 0.8 NW 13 15 7 8 1018.7 - 0.0
28/04:30am 12.6 10.9 11.2 91 0.7 NW 11 15 6 8 1018.6 - 0.0
28/04:00am 12.6 10.4 10.8 89 0.9 NW 13 17 7 9 1018.4 - 0.0
28/03:30am 13.1 10.6 11.2 88 1.0 NW 15 19 8 10 1018.6 - 0.0
28/03:00am 13.0 11.2 10.7 86 1.2 WNW 11 15 6 8 1018.6 1018.4 0.0
28/02:30am 13.1 11.2 10.6 85 1.3 WNW 11 15 6 8 1018.8 - 0.0
28/02:00am 13.3 11.0 10.5 83 1.5 NW 13 17 7 9 1018.7 - 0.0
28/01:30am 13.0 11.0 10.2 83 1.5 NW 11 13 6 7 1018.4 - 0.0
28/01:00am 13.6 10.6 10.6 82 1.6 NNW 17 20 9 11 1018.8 - 0.0
28/12:30am 13.9 11.3 10.7 81 1.7 NW 15 20 8 11 1019.0 - 0.0
28/12:00am 14.0 11.4 10.8 81 1.7 NW 15 19 8 10 1018.9 1018.8 0.0
 
Date/Time
CST
Temp
°C
App
Temp
°C
Dew
Point
Rel
Hum
%
Delta-T
°C
Wind Press
QNH
hPa
Press
MSL
hPa
Rain
since 9 am
mm
Dir
 
Spd
km/h
Gust
km/h
Spd
kts
Gust
kts
27/11:30pm 14.1 11.5 10.7 80 1.8 NW 15 19 8 10 1019.0 - 0.0
27/11:00pm 13.6 11.4 10.9 84 1.4 NW 13 17 7 9 1018.9 - 0.0
27/10:30pm 13.3 11.2 11.0 86 1.2 NW 13 15 7 8 1019.2 - 0.0
27/10:00pm 12.6 10.6 10.3 86 1.2 NW 11 13 6 7 1019.5 - 0.0
27/09:30pm 13.1 11.1 10.3 83 1.5 WNW 11 13 6 7 1019.4 - 0.0
27/09:00pm 13.7 11.2 9.7 77 2.1 NW 13 15 7 8 1019.2 1019.1 0.0
27/08:30pm 13.9 11.3 9.3 74 2.4 NW 13 15 7 8 1019.2 - 0.0
27/08:00pm 14.5 11.9 9.3 71 2.7 NW 13 15 7 8 1019.2 - 0.0
27/07:30pm 15.0 12.3 8.9 67 3.1 NW 13 15 7 8 1019.3 - 0.0
27/07:00pm 15.3 13.0 9.0 66 3.3 NW 11 15 6 8 1019.0 - 0.0
27/06:30pm 15.0 13.1 8.9 67 3.1 NW 9 11 5 6 1018.8 - 0.0
27/06:00pm 15.9 13.6 8.9 63 3.6 NW 11 13 6 7 1018.6 1018.4 0.0
27/05:30pm 17.1 14.8 9.0 59 4.2 NW 11 13 6 7 1018.2 - 0.0
27/05:00pm 19.0 15.8 8.6 51 5.4 WNW 15 20 8 11 1018.1 - 0.0
27/04:30pm 19.8 16.7 8.8 49 5.8 NW 15 24 8 13 1018.1 - 0.0
27/04:00pm 20.0 16.2 9.0 49 5.8 NW 19 24 10 13 1018.2 - 0.0
27/03:30pm 20.1 16.1 8.1 46 6.3 WNW 19 28 10 15 1018.4 - 0.0
27/03:00pm 19.9 15.9 8.3 47 6.1 WNW 19 26 10 14 1018.6 1018.4 0.0
27/02:30pm 19.9 15.9 8.9 49 5.8 WNW 20 32 11 17 1018.7 - 0.0
27/02:00pm 19.6 15.4 9.8 53 5.3 WNW 22 32 12 17 1018.8 - 0.0
27/01:30pm 19.1 14.6 10.1 56 4.9 W 24 33 13 18 1019.1 - 0.0
27/01:00pm 19.4 15.7 10.1 55 5.0 WNW 20 32 11 17 1019.4 - 0.0
27/12:30pm 18.8 14.6 9.8 56 4.8 W 22 32 12 17 1020.0 - 0.0
27/12:00pm 18.8 14.6 9.8 56 4.8 W 22 33 12 18 1020.4 1020.3 0.0
27/11:30am 18.7 14.8 9.5 55 4.9 WNW 20 28 11 15 1020.6 - 0.0
27/11:00am 18.4 14.5 10.7 61 4.2 NW 22 32 12 17 1021.0 - 0.0
27/10:30am 17.7 13.4 10.8 64 3.7 WNW 24 30 13 16 1021.1 - 0.0
27/10:00am 17.2 13.2 10.6 65 3.6 NW 22 32 12 17 1021.1 - 0.0
27/09:30am 16.4 12.4 10.5 68 3.2 NW 22 30 12 16 1021.0 - 0.0
27/09:00am 14.8 11.2 10.6 76 2.2 NNW 20 28 11 15 1020.9 1020.8 0.8
27/08:30am 13.7 10.2 10.1 79 1.9 NNW 19 24 10 13 1021.0 - 0.8
27/08:00am 12.8 9.1 10.0 83 1.5 NNW 20 26 11 14 1020.6 - 0.8
27/07:30am 12.3 9.1 10.0 86 1.2 NNW 17 20 9 11 1020.6 - 0.8
27/07:00am 12.1 8.5 10.0 87 1.1 NNW 19 22 10 12 1020.5 - 0.8
27/06:30am 12.1 8.4 10.2 88 1.0 NNW 20 24 11 13 1020.3 - 0.8
27/06:00am 12.0 9.2 9.9 87 1.1 NNW 15 19 8 10 1020.3 1020.2 0.8
27/05:30am 12.0 9.6 10.2 89 0.9 NNW 13 19 7 10 1020.2 - 0.8
27/05:00am 12.2 9.2 9.4 83 1.4 NW 15 20 8 11 1020.1 - 0.8
27/04:30am 12.2 8.3 8.7 79 1.8 NW 19 24 10 13 1020.1 - 0.8
27/04:00am 12.2 8.7 8.7 79 1.8 NW 17 20 9 11 1020.1 - 0.8
27/03:30am 12.4 9.3 8.7 78 1.9 WNW 15 17 8 9 1020.5 - 0.8
27/03:00am 13.2 9.7 8.7 74 2.3 NW 17 22 9 12 1020.5 1020.4 0.8
27/02:30am 13.6 10.0 8.2 70 2.7 NW 17 24 9 13 1020.6 - 0.8
27/02:00am 13.8 9.8 8.2 69 2.8 NW 19 22 10 12 1020.8 - 0.8
27/01:30am 14.0 10.4 8.2 68 2.9 NW 17 24 9 13 1020.9 - 0.8
27/01:00am 14.4 10.8 8.4 67 3.0 NW 17 22 9 12 1021.0 - 0.8
27/12:30am 14.2 11.0 8.6 69 2.8 NNW 15 20 8 11 1021.2 - 0.8
27/12:00am 13.6 10.6 9.1 74 2.3 NNW 15 17 8 9 1021.2 1021.1 0.8
 
Date/Time
CST
Temp
°C
App
Temp
°C
Dew
Point
Rel
Hum
%
Delta-T
°C
Wind Press
QNH
hPa
Press
MSL
hPa
Rain
since 9 am
mm
Dir
 
Spd
km/h
Gust
km/h
Spd
kts
Gust
kts
26/11:30pm 13.4 11.2 9.5 77 2.0 NNW 11 15 6 8 1021.4 - 0.8
26/11:00pm 13.8 11.3 9.6 76 2.2 NNW 13 15 7 8 1021.6 - 0.8
26/10:30pm 13.5 10.6 9.6 77 2.0 N 15 19 8 10 1021.6 - 0.8
26/10:00pm 13.7 10.8 9.7 77 2.1 N 15 17 8 9 1021.6 - 0.8
26/09:30pm 13.9 10.6 9.7 76 2.2 N 17 20 9 11 1021.4 - 0.8
26/09:00pm 13.8 11.3 9.8 77 2.1 NNW 13 17 7 9 1021.5 1021.4 0.8
26/08:30pm 13.3 10.9 10.1 81 1.7 NNW 13 19 7 10 1021.6 - 0.8
26/08:00pm 13.1 10.7 10.1 82 1.6 NNW 13 17 7 9 1021.6 - 0.8
26/07:30pm 13.4 11.1 10.6 83 1.5 N 13 17 7 9 1021.6 - 0.8
26/07:00pm 13.4 11.6 10.9 85 1.3 N 11 15 6 8 1021.9 - 0.8
26/06:30pm 13.4 12.4 11.1 86 1.2 NW 7 9 4 5 1021.8 - 0.8
26/06:00pm 13.7 11.9 10.7 82 1.6 W 11 15 6 8 1022.0 1021.9 0.8
26/05:30pm 14.8 11.2 10.0 73 2.5 WSW 19 26 10 14 1021.9 - 0.2
26/05:00pm 16.4 14.7 10.0 66 3.4 WNW 9 13 5 7 1021.4 - 0.0
26/04:30pm 16.9 13.4 8.8 59 4.2 NW 17 24 9 13 1021.2 - 0.0
26/04:00pm 19.1 16.1 7.5 47 6.0 WNW 13 17 7 9 1021.1 - 0.0
26/03:30pm 19.5 15.6 6.9 44 6.4 NW 17 22 9 12 1020.8 - 0.0
26/03:00pm 19.8 15.2 5.5 39 7.1 WNW 19 26 10 14 1020.6 1020.5 0.0
26/02:30pm 20.2 15.9 5.4 38 7.3 WNW 17 24 9 13 1020.5 - 0.0
26/02:00pm 20.9 16.7 5.7 37 7.6 NW 17 26 9 14 1020.9 - 0.0
26/01:30pm 20.7 16.1 5.5 37 7.6 NW 19 26 10 14 1021.2 - 0.0
26/01:00pm 20.6 16.7 5.4 37 7.6 NW 15 26 8 14 1021.6 - 0.0
26/12:30pm 19.8 15.0 5.5 39 7.1 WNW 20 24 11 13 1022.2 - 0.0
26/12:00pm 19.9 16.0 7.0 43 6.6 NNW 17 24 9 13 1022.7 1022.6 0.0
26/11:30am 19.3 15.3 6.8 44 6.3 NNW 17 22 9 12 1023.3 - 0.0
26/11:00am 19.1 14.7 6.6 44 6.3 NNW 19 28 10 15 1023.7 - 0.0
26/10:30am 18.8 14.8 8.2 50 5.5 NW 19 28 10 15 1024.1 - 0.0
26/10:00am 17.9 13.8 8.7 55 4.8 N 20 24 11 13 1024.4 - 0.0
26/09:30am 17.3 13.7 8.4 56 4.6 N 17 20 9 11 1024.3 - 0.0
26/09:00am 15.1 11.7 7.6 61 3.7 N 15 19 8 10 1024.6 1024.5 0.2
26/08:30am 13.6 9.8 7.4 66 3.1 N 17 19 9 10 1024.7 - 0.2
26/08:00am 13.5 9.6 7.1 65 3.1 N 17 20 9 11 1024.6 - 0.2
26/07:30am 13.2 9.3 7.0 66 3.0 N 17 19 9 10 1024.5 - 0.2
26/07:00am 13.4 9.1 7.0 65 3.1 N 19 22 10 12 1024.4 - 0.2
26/06:30am 13.7 9.8 7.2 65 3.2 N 17 22 9 12 1024.4 - 0.2
26/06:00am 13.7 9.3 7.5 66 3.1 N 20 22 11 12 1024.1 1024.1 0.2
26/05:30am 13.9 10.0 7.2 64 3.3 N 17 20 9 11 1024.3 - 0.2
26/05:00am 13.9 9.6 7.2 64 3.3 N 19 20 10 11 1024.1 - 0.2
26/04:30am 12.5 10.1 7.2 70 2.6 NNE 9 11 5 6 1024.4 - 0.2
26/04:00am 12.2 9.8 6.9 70 2.6 N 9 11 5 6 1024.6 - 0.2
26/03:30am 11.8 9.5 7.3 74 2.2 N 9 13 5 7 1024.6 - 0.2
26/03:00am 12.1 9.8 7.6 74 2.2 N 9 11 5 6 1024.8 1024.7 0.2
26/02:30am 12.8 10.1 7.5 70 2.6 N 11 13 6 7 1025.0 - 0.2
26/02:00am 13.3 10.3 7.7 69 2.8 N 13 15 7 8 1025.2 - 0.2
26/01:30am 14.0 11.1 8.0 67 3.0 N 13 17 7 9 1025.4 - 0.2
26/01:00am 13.8 11.3 8.4 70 2.7 N 11 17 6 9 1025.4 - 0.2
26/12:30am 13.9 10.8 8.7 71 2.6 N 15 19 8 10 1025.6 - 0.2
26/12:00am 14.3 11.5 8.5 68 2.9 N 13 17 7 9 1025.8 1025.7 0.2
 
Date/Time
CST
Temp
°C
App
Temp
°C
Dew
Point
Rel
Hum
%
Delta-T
°C
Wind Press
QNH
hPa
Press
MSL
hPa
Rain
since 9 am
mm
Dir
 
Spd
km/h
Gust
km/h
Spd
kts
Gust
kts
25/11:30pm 14.7 11.1 8.2 65 3.3 N 17 22 9 12 1026.1 - 0.2
25/11:00pm 14.1 10.6 8.7 70 2.7 N 17 20 9 11 1026.1 - 0.2
25/10:30pm 13.9 10.8 8.7 71 2.6 NNE 15 19 8 10 1025.9 - 0.2
25/10:00pm 14.1 10.8 8.1 67 3.0 NNE 15 19 8 10 1026.3 - 0.2
25/09:30pm 13.8 10.7 9.0 73 2.5 N 15 19 8 10 1026.2 - 0.2
25/09:00pm 13.6 11.0 9.5 76 2.1 NNE 13 17 7 9 1026.2 1026.1 0.2
25/08:30pm 13.8 11.6 9.5 75 2.2 NNE 11 15 6 8 1026.2 - 0.2
25/08:00pm 13.8 11.8 10.0 78 2.0 NNE 11 13 6 7 1026.5 - 0.2
25/07:30pm 13.8 11.9 10.6 81 1.7 NNE 11 13 6 7 1026.4 - 0.0
25/07:00pm 13.8 12.6 10.4 80 1.8 ENE 7 9 4 5 1026.2 - 0.0
25/06:30pm 13.6 12.3 10.0 79 1.9 E 7 9 4 5 1026.1 - 0.0
25/06:00pm 14.1 12.1 10.1 77 2.1 ESE 11 13 6 7 1025.9 1025.8 0.0
25/05:30pm 14.7 12.9 9.5 71 2.7 ESE 9 11 5 6 1025.8 - 0.0
25/05:00pm 15.6 13.5 9.9 69 3.0 E 11 15 6 8 1025.6 - 0.0
25/04:30pm 16.2 12.9 9.6 65 3.5 ESE 17 20 9 11 1025.4 - 0.0
25/04:00pm 17.1 13.7 9.3 60 4.1 ESE 17 20 9 11 1025.4 - 0.0
25/03:30pm 17.7 14.3 9.1 57 4.5 ESE 17 20 9 11 1025.0 - 0.0

Other Formats:

Comma delimited format used in spreadsheet applications
http://www.bom.gov.au/fwo/IDS60801/IDS60801.94662.axf

JavaScript Object Notation format (JSON) in row-major order
http://www.bom.gov.au/fwo/IDS60801/IDS60801.94662.json